Riceville, New York
Current Conditions -  °F | °C
As of 12:55 PM on Monday 24 Nov 2014 (Local Time) from KNY0 Reporting Station
Overcast Overcast  
Wind Chill: 63°   Ceiling: 3900
Heat Index: 63°   Visibility: 10mi
Dew Point: 55°   Wind: 7mph
Humidity: 75%   Direction: 160°SSE
Pressure: 29.47"   Gusts: NA
Location:  43.1204°N, 74.3629°W
Report Text: KNY0 241755Z AUTO 16006KT 10SM BKN039 OVC045 17/13 A2947 RMK AO2 60001 T01740130 10174 20086
Loading
Personal Weather Stations






























Interactive Weather Map New forecast layout! Learn more

10-Day Weather Forecast

Advertisements
Track Severe Weather on mobile